Airfield :
LOGIN :

Register | Disclaimer

   EN    FR    IT 

 










Legend :    VFR   Marginal VFR   IFR   Intensive IFR   Very Intensive IFR
Visi :
Ceiling :
>= 8 km
>= 3000ft
5 to 8 km
1000 to 3000 ft
1500m to 5 km
500 to 1000 ft
800 to 1500m
200 to 500 ft
< 800m
< 200 ft
Symbols :   Thunderstorms  Fog  Heavy snow  Heavy precipitations  Wind > 20 kt
SIGMETs :     Misc.  Thunderstorms  Icing  Turbulence  Mountain Waves  Volcanic Ashes







- Airport Elevation : 499 ft
- IATA code : TLS
- Download approach charts


LFBO - Toulouse / Blagnac

CURRENT METAR :
  • 181530Z AUTO 28011KT 9999 FEW035 13/05 Q1021 BECMG BKN014

EXPIRED METARs :
  • 181500Z AUTO 27011KT 9999 BKN033 13/05 Q1021 BECMG BKN014
  • 181430Z AUTO 26008KT 220V300 9999 BKN030 BKN035 14/06 Q1021 BECMG BKN014
  • 181400Z AUTO 27010KT 9999 SCT030 SCT056 13/05 Q1021 BECMG BKN014
  • 181330Z AUTO 28010KT 250V310 9999 FEW031 13/05 Q1021 BECMG BKN014
  • 181300Z AUTO 28008KT 230V320 9999 FEW029 13/05 Q1022 NOSIG

TAF TAF LFBO
Valid from the 18 at 12:00 until the 19 at 18:00 UTC


181100Z 1812/1918 25012KT 9999 BKN030
BECMG 1815/1818 BKN014
TEMPO 1902/1906 -RA BKN007
BECMG 1906/1908 SCT015 BKN050
TEMPO 1908/1918 4000 -SHRA BKN012 SCT015TCU
ATIS : +33 5 62 74 66 36
No reported NOTAMs for that airfield.
1 SIGMET reported for the Bordeaux FIR (LFBB) :
 
Severe turbulence
LFBB SIGMET 4 VALID 181300/181700 LFPW
LFBB BORDEAUX FIR/UIR SEV TURB FCST NE OF LINE N4500 E00245 - N4715 E00130 SFC/FL080 STNR WKN=



MET'MAP, your aeronautical weather chart ! - Copyright ORBIFLY December 2007 - Disclaimer

ORBIFLY MET'MAP TEAM :

Programming & Development : Alexandra Zaïnal
Concept & Development : Baudouin d'Aumeries
Co-Development & Prog : Marc-Olivier Méhu
Technical & hardware support : Manuel Goepfert

Contact : metmap@orbifly.com




SOURCES & CREDITS :

   NOAA